createdAt,value
2023-03-06T00:17:47.619Z,0.07
2023-03-06T00:48:04.457Z,0.07
2023-03-06T01:18:21.460Z,0.07
2023-03-06T01:48:39.502Z,0.07
2023-03-06T02:18:55.627Z,0.07
2023-03-06T02:49:13.024Z,0.07
2023-03-06T03:19:30.001Z,0.07
2023-03-06T03:49:48.742Z,0.08
2023-03-06T04:20:06.302Z,0.08
2023-03-06T04:50:22.657Z,0.09
2023-03-06T05:20:40.786Z,0.09
2023-03-06T05:50:58.653Z,0.09
2023-03-06T06:21:19.955Z,0.09
2023-03-06T06:51:37.976Z,0.09
2023-03-06T07:52:18.683Z,0.09
2023-03-06T08:22:39.544Z,0.1
2023-03-06T08:53:01.633Z,0.1
2023-03-06T09:23:18.410Z,0.1
2023-03-06T09:53:37.895Z,0.1
2023-03-06T10:23:58.246Z,0.1
2023-03-06T10:54:20.436Z,0.1
2023-03-06T11:24:51.829Z,0.1
2023-03-06T11:54:59.296Z,0.09
2023-03-06T12:25:29.222Z,0.1
2023-03-06T12:55:35.010Z,0.09
2023-03-06T13:25:44.287Z,0.09
2023-03-06T13:56:00.664Z,0.09
2023-03-06T14:26:19.484Z,0.1
2023-03-06T14:56:35.247Z,0.1
2023-03-06T15:26:51.826Z,0.1
2023-03-06T15:57:07.017Z,0.1
2023-03-06T16:27:21.579Z,0.1
2023-03-06T16:57:43.968Z,0.1
2023-03-06T17:28:01.955Z,0.11
2023-03-06T17:58:16.387Z,0.11
2023-03-06T18:28:31.705Z,0.11
2023-03-06T18:58:48.659Z,0.11
2023-03-06T19:29:05.967Z,0.12
2023-03-06T19:59:23.830Z,0.13
2023-03-06T20:29:40.650Z,0.13
2023-03-06T20:59:57.261Z,0.13
2023-03-06T21:30:14.285Z,0.13
2023-03-06T22:00:31.591Z,0.13
2023-03-06T22:30:51.524Z,0.13
2023-03-06T23:01:10.648Z,0.13
2023-03-06T23:31:32.513Z,0.14
